GMME/RBA METAR and TAF weather

Enter ICAO airport designator
Station Type Date Time Source
GMME METAR 2019/08/19 22:30 UTC NOAA

GMME 192230Z 33004KT 8000 SCT016 21/19 Q1017 NOSIG


Station Type Date Time Source
GMME Decoded METAR 2019/08/19 22:30 UTC NOAA

Rabat-Sale, Morocco (GMME) 34-03N 006-46W 75M
Aug 19, 2019 - 06:30 PM EDT / 2019.08.19 2230 UTC
Wind: from the NNW (330 degrees) at 5 MPH (4 KT):0
Visibility: 4 mile(s):0
Sky conditions: partly cloudy
Temperature: 69 F (21 C)
Dew Point: 66 F (19 C)
Relative Humidity: 88%
Pressure (altimeter): 30.03 in. Hg (1017 hPa)
ob: GMME 192230Z 33004KT 8000 SCT016 21/19 Q1017 NOSIG
cycle: 22

Station Type Date Time Source
GMME TAF 2019/08/19 18:18 UTC NOAA

TAF GMME 191700Z 1918/2024 32010KT 8000 SCT010 SCT016
TEMPO 2002/1209 4000 BR

Example: see airport list